createdAt,value
2019-01-16T00:01:36.424Z,1.50
2019-01-16T00:04:23.755Z,1.40
2019-01-16T00:07:13.401Z,1.30
2019-01-16T00:10:18.416Z,1.20
2019-01-16T00:13:05.694Z,1.00
2019-01-16T00:15:47.556Z,1.00
2019-01-16T00:18:30.108Z,1.00
2019-01-16T00:21:20.001Z,1.00
2019-01-16T00:24:21.932Z,1.10
2019-01-16T00:27:07.633Z,1.10
2019-01-16T00:29:46.733Z,1.20
2019-01-16T00:32:26.270Z,1.30
2019-01-16T00:35:13.588Z,1.60
2019-01-16T00:38:03.486Z,1.40
2019-01-16T00:40:53.234Z,1.30
2019-01-16T00:43:43.014Z,1.20
2019-01-16T00:46:35.865Z,1.10
2019-01-16T00:49:21.921Z,1.10
2019-01-16T00:52:07.139Z,1.20
2019-01-16T00:54:54.242Z,1.10
2019-01-16T00:57:39.617Z,1.00
2019-01-16T01:00:18.841Z,1.10
2019-01-16T01:03:14.693Z,1.30
2019-01-16T01:06:04.393Z,1.50
2019-01-16T01:08:43.149Z,1.50
2019-01-16T01:11:32.816Z,1.30
2019-01-16T01:14:30.609Z,1.10
2019-01-16T01:17:26.514Z,0.90
2019-01-16T01:20:32.042Z,0.90
2019-01-16T01:23:19.109Z,1.00
2019-01-16T01:26:14.956Z,1.00
2019-01-16T01:28:54.453Z,0.90
2019-01-16T01:31:53.425Z,0.90
2019-01-16T01:34:33.014Z,0.90
2019-01-16T01:37:18.793Z,0.90
2019-01-16T01:40:06.105Z,1.00
2019-01-16T01:42:45.428Z,1.00
2019-01-16T01:45:23.580Z,0.90
2019-01-16T01:48:06.432Z,0.70
2019-01-16T01:50:56.269Z,1.10
2019-01-16T01:53:43.396Z,1.00
2019-01-16T01:56:39.814Z,1.10
2019-01-16T01:59:29.911Z,1.10
2019-01-16T02:02:34.836Z,0.80
2019-01-16T02:05:16.385Z,0.60
2019-01-16T02:08:01.154Z,0.50
2019-01-16T02:10:40.810Z,0.60
2019-01-16T02:13:29.393Z,0.60
2019-01-16T02:16:31.340Z,0.50
2019-01-16T02:19:27.473Z,0.40
2019-01-16T02:22:20.503Z,0.50
2019-01-16T02:25:19.882Z,0.60
2019-01-16T02:28:03.882Z,0.60
2019-01-16T02:30:59.641Z,0.50
2019-01-16T02:33:44.953Z,0.50
2019-01-16T02:36:19.040Z,0.60
2019-01-16T02:39:07.315Z,0.50
2019-01-16T02:41:40.778Z,0.60
2019-01-16T02:44:33.626Z,0.90
2019-01-16T02:47:27.253Z,1.00
2019-01-16T02:50:06.068Z,1.00
2019-01-16T02:52:51.961Z,0.70
2019-01-16T02:55:38.483Z,0.50
2019-01-16T02:58:24.134Z,0.40
2019-01-16T03:01:17.305Z,0.50
2019-01-16T03:04:04.420Z,0.50
2019-01-16T03:07:00.401Z,0.40
2019-01-16T03:09:56.531Z,0.40
2019-01-16T03:12:46.334Z,0.40
2019-01-16T03:15:33.438Z,0.40
2019-01-16T03:18:23.515Z,0.30
2019-01-16T03:21:08.924Z,0.40
2019-01-16T03:24:01.955Z,0.50
2019-01-16T03:26:37.474Z,0.50
2019-01-16T03:29:23.065Z,0.60
2019-01-16T03:32:07.981Z,0.40
2019-01-16T03:35:00.790Z,0.40
2019-01-16T03:37:47.947Z,0.70
2019-01-16T03:40:33.412Z,0.50
2019-01-16T03:43:19.447Z,0.40
2019-01-16T03:46:06.656Z,0.50
2019-01-16T03:48:56.423Z,0.60
2019-01-16T03:51:49.502Z,0.30
2019-01-16T03:54:34.935Z,0.50
2019-01-16T03:57:15.509Z,0.50
2019-01-16T04:00:02.626Z,0.70
2019-01-16T04:03:10.038Z,0.60
2019-01-16T04:05:45.768Z,0.50
2019-01-16T04:08:34.210Z,0.50
2019-01-16T04:11:15.044Z,0.30
2019-01-16T04:14:20.440Z,0.30
2019-01-16T04:17:09.363Z,0.40
2019-01-16T04:20:05.207Z,0.30
2019-01-16T04:22:54.943Z,0.40
2019-01-16T04:25:34.356Z,0.20
2019-01-16T04:28:36.533Z,0.10
2019-01-16T04:31:38.606Z,0.20
2019-01-16T04:34:44.001Z,0.30
2019-01-16T04:37:49.214Z,0.10
2019-01-16T04:40:35.081Z,0.20
2019-01-16T04:43:14.175Z,0.00
2019-01-16T04:46:07.186Z,0.00
2019-01-16T04:48:47.202Z,-0.10
2019-01-16T04:51:30.850Z,-0.20
2019-01-16T04:54:20.857Z,-0.20
2019-01-16T04:57:06.484Z,-0.20
2019-01-16T04:59:55.890Z,-0.20
2019-01-16T05:02:54.792Z,-0.20
2019-01-16T05:05:40.453Z,-0.20
2019-01-16T05:08:26.141Z,-0.20
2019-01-16T05:11:12.442Z,-0.30
2019-01-16T05:14:17.373Z,-0.20
2019-01-16T05:17:10.826Z,-0.30
2019-01-16T05:19:56.805Z,-0.10
2019-01-16T05:22:35.147Z,-0.10
2019-01-16T05:25:18.257Z,-0.30
2019-01-16T05:28:17.416Z,-0.40
2019-01-16T05:31:13.432Z,-0.40
2019-01-16T05:34:02.382Z,-0.40
2019-01-16T05:36:48.036Z,-0.20
2019-01-16T05:39:23.322Z,-0.30
2019-01-16T05:42:16.608Z,-0.10
2019-01-16T05:45:03.777Z,0.10
2019-01-16T05:47:56.918Z,0.20
2019-01-16T05:50:49.950Z,0.10
2019-01-16T05:53:45.763Z,0.00
2019-01-16T05:56:38.592Z,-0.20
2019-01-16T05:59:26.038Z,-0.10
2019-01-16T06:02:11.586Z,-0.20
2019-01-16T06:04:50.009Z,-0.10
2019-01-16T06:07:45.868Z,0.20
2019-01-16T06:10:42.045Z,0.20
2019-01-16T06:13:32.096Z,0.00
2019-01-16T06:16:22.109Z,-0.10
2019-01-16T06:19:12.122Z,-0.30
2019-01-16T06:22:11.032Z,-0.40
2019-01-16T06:25:03.779Z,-0.30
2019-01-16T06:27:49.056Z,-0.20
2019-01-16T06:30:34.219Z,-0.30
2019-01-16T06:33:21.321Z,-0.30
2019-01-16T06:36:09.350Z,-0.30
2019-01-16T06:38:54.860Z,-0.20
2019-01-16T06:41:42.635Z,-0.20
2019-01-16T06:44:30.825Z,-0.20
2019-01-16T06:47:27.198Z,-0.40
2019-01-16T06:50:20.272Z,-0.30
2019-01-16T06:53:22.491Z,-0.20
2019-01-16T06:56:05.007Z,-0.20
2019-01-16T06:58:52.171Z,-0.20
2019-01-16T07:01:41.868Z,-0.60
2019-01-16T07:04:31.695Z,-0.60
2019-01-16T07:07:16.281Z,-0.60
2019-01-16T07:10:21.486Z,-0.60
2019-01-16T07:13:08.592Z,-0.60
2019-01-16T07:15:54.003Z,-0.30
2019-01-16T07:18:46.857Z,-0.20
2019-01-16T07:21:33.960Z,-0.10
2019-01-16T07:24:36.149Z,-0.30
2019-01-16T07:27:23.339Z,-0.10
2019-01-16T07:30:09.045Z,-0.20
2019-01-16T07:32:54.856Z,0.10
2019-01-16T07:35:40.429Z,0.00
2019-01-16T07:38:42.732Z,0.10
2019-01-16T07:41:38.843Z,0.00
2019-01-16T07:44:24.168Z,0.10
2019-01-16T07:47:17.201Z,0.00
2019-01-16T07:50:22.084Z,0.10
2019-01-16T07:53:07.057Z,0.30
2019-01-16T07:55:50.874Z,0.50
2019-01-16T07:58:30.387Z,0.90
2019-01-16T08:01:30.999Z,1.10
2019-01-16T08:04:13.835Z,1.30
2019-01-16T08:06:57.388Z,1.60
2019-01-16T08:09:35.731Z,2.00
2019-01-16T08:12:25.511Z,2.60
2019-01-16T08:15:11.057Z,2.80
2019-01-16T08:17:56.689Z,3.30
2019-01-16T08:20:42.558Z,3.80
2019-01-16T08:23:32.559Z,4.10
2019-01-16T08:26:25.318Z,4.50
2019-01-16T08:29:10.668Z,4.90
2019-01-16T08:32:00.637Z,5.30
2019-01-16T08:34:46.032Z,5.60
2019-01-16T08:37:36.096Z,5.90
2019-01-16T08:40:24.530Z,6.10
2019-01-16T08:43:29.433Z,6.30
2019-01-16T08:46:31.576Z,6.70
2019-01-16T08:49:17.240Z,7.10
2019-01-16T08:52:12.359Z,7.60
2019-01-16T08:54:55.032Z,8.10
2019-01-16T08:57:57.286Z,8.50
2019-01-16T09:00:47.087Z,8.80
2019-01-16T09:03:34.241Z,9.20
2019-01-16T09:06:19.632Z,9.60
2019-01-16T09:09:05.240Z,10.10
2019-01-16T09:11:50.919Z,10.50
2019-01-16T09:14:37.981Z,10.90
2019-01-16T09:17:28.870Z,11.20
2019-01-16T09:20:18.969Z,11.50
2019-01-16T09:23:07.925Z,11.90
2019-01-16T09:25:53.492Z,12.50
2019-01-16T09:28:43.588Z,13.00
2019-01-16T09:31:29.384Z,13.10
2019-01-16T09:34:28.483Z,13.20
2019-01-16T09:37:15.890Z,13.20
2019-01-16T09:40:17.756Z,13.60
2019-01-16T09:43:09.384Z,13.90
2019-01-16T09:45:45.308Z,14.20
2019-01-16T09:48:41.313Z,14.30
2019-01-16T09:51:37.180Z,14.20
2019-01-16T09:54:42.321Z,14.30
2019-01-16T09:57:41.321Z,14.60
2019-01-16T10:00:46.076Z,14.90
2019-01-16T10:03:31.688Z,15.30
2019-01-16T10:06:22.240Z,15.60
2019-01-16T10:09:01.596Z,15.90
2019-01-16T10:12:00.705Z,16.20
2019-01-16T10:14:58.134Z,16.50
2019-01-16T10:17:47.292Z,17.00
2019-01-16T10:20:32.572Z,17.30
2019-01-16T10:23:25.784Z,17.70
2019-01-16T10:26:19.006Z,18.10
2019-01-16T10:28:58.450Z,18.60
2019-01-16T10:31:54.430Z,19.00
2019-01-16T10:34:42.992Z,19.00
2019-01-16T10:37:28.496Z,19.10
2019-01-16T10:40:13.979Z,19.50
2019-01-16T10:43:08.955Z,19.60
2019-01-16T10:46:07.420Z,19.90
2019-01-16T10:48:53.080Z,19.90
2019-01-16T10:51:52.273Z,19.40
2019-01-16T10:54:33.905Z,19.40
2019-01-16T10:57:23.905Z,19.70
2019-01-16T11:00:05.861Z,19.30
2019-01-16T11:02:44.153Z,18.80
2019-01-16T11:05:37.552Z,18.60
2019-01-16T11:08:34.010Z,18.30
2019-01-16T11:11:19.708Z,18.20
2019-01-16T11:14:05.274Z,18.40
2019-01-16T11:16:56.763Z,18.60
2019-01-16T11:19:55.909Z,18.70
2019-01-16T11:22:41.660Z,19.00
2019-01-16T11:25:30.976Z,19.00
2019-01-16T11:28:12.879Z,19.30
2019-01-16T11:30:57.011Z,19.50
2019-01-16T11:33:44.092Z,19.60
2019-01-16T11:36:29.956Z,19.80
2019-01-16T11:39:15.549Z,19.90
2019-01-16T11:41:58.526Z,20.00
2019-01-16T11:44:48.511Z,19.90
2019-01-16T11:47:31.197Z,20.30
2019-01-16T11:50:18.356Z,20.50
2019-01-16T11:53:01.684Z,20.80
2019-01-16T11:55:51.765Z,21.20
2019-01-16T11:58:39.020Z,21.50
2019-01-16T12:01:29.704Z,21.90
2019-01-16T12:04:16.816Z,22.30
2019-01-16T12:07:12.806Z,22.40
2019-01-16T12:10:05.536Z,22.40
2019-01-16T12:12:55.780Z,22.50
2019-01-16T12:15:32.724Z,22.60
2019-01-16T12:18:13.448Z,22.70
2019-01-16T12:21:04.544Z,23.00
2019-01-16T12:23:49.841Z,22.80
2019-01-16T12:26:30.216Z,22.90
2019-01-16T12:29:17.297Z,22.90
2019-01-16T12:31:53.914Z,23.00
2019-01-16T12:34:49.821Z,22.90
2019-01-16T12:37:35.424Z,22.60
2019-01-16T12:40:30.032Z,22.40
2019-01-16T12:43:13.952Z,22.10
2019-01-16T12:46:03.696Z,21.90
2019-01-16T12:48:46.189Z,21.70
2019-01-16T12:51:42.140Z,22.00
2019-01-16T12:54:44.202Z,21.90
2019-01-16T12:57:34.305Z,22.40
2019-01-16T13:00:18.200Z,21.80
2019-01-16T13:03:08.240Z,21.70
2019-01-16T13:05:53.849Z,21.20
2019-01-16T13:08:38.825Z,20.80
2019-01-16T13:11:25.965Z,21.00
2019-01-16T13:14:06.357Z,20.70
2019-01-16T13:16:56.040Z,20.80
2019-01-16T13:19:55.184Z,20.70
2019-01-16T13:22:45.985Z,20.90
2019-01-16T13:25:43.577Z,20.80
2019-01-16T13:28:30.629Z,20.70
2019-01-16T13:31:09.829Z,20.90
2019-01-16T13:34:02.700Z,21.00
2019-01-16T13:37:01.589Z,21.00
2019-01-16T13:39:46.912Z,20.70
2019-01-16T13:42:45.977Z,20.50
2019-01-16T13:45:31.326Z,20.50
2019-01-16T13:48:17.713Z,20.90
2019-01-16T13:51:20.489Z,21.20
2019-01-16T13:54:05.827Z,21.10
2019-01-16T13:56:46.819Z,21.20
2019-01-16T13:59:49.019Z,21.20
2019-01-16T14:02:47.883Z,21.20
2019-01-16T14:05:22.597Z,21.10
2019-01-16T14:07:59.933Z,21.00
2019-01-16T14:10:52.732Z,20.60
2019-01-16T14:13:42.785Z,20.30
2019-01-16T14:16:47.853Z,19.70
2019-01-16T14:19:37.829Z,19.00
2019-01-16T14:22:36.617Z,18.70
2019-01-16T14:25:22.533Z,18.80
2019-01-16T14:28:08.195Z,18.90
2019-01-16T14:31:10.301Z,19.40
2019-01-16T14:34:07.088Z,19.30
2019-01-16T14:37:09.016Z,19.00
2019-01-16T14:39:56.116Z,19.00
2019-01-16T14:42:32.669Z,18.70
2019-01-16T14:45:20.185Z,18.70
2019-01-16T14:47:56.238Z,18.00
2019-01-16T14:50:35.209Z,17.40
2019-01-16T14:53:34.185Z,16.80
2019-01-16T14:56:18.081Z,16.20
2019-01-16T14:59:10.988Z,15.60
2019-01-16T15:02:10.085Z,15.20
2019-01-16T15:05:09.219Z,14.70
2019-01-16T15:07:54.655Z,14.30
2019-01-16T15:10:56.928Z,13.90
2019-01-16T15:13:42.460Z,13.90
2019-01-16T15:16:33.614Z,13.90
2019-01-16T15:19:18.476Z,14.10
2019-01-16T15:22:06.410Z,14.10
2019-01-16T15:24:59.165Z,14.40
2019-01-16T15:27:44.952Z,14.20
2019-01-16T15:30:41.596Z,14.00
2019-01-16T15:33:38.515Z,13.80
2019-01-16T15:36:29.360Z,13.60
2019-01-16T15:39:22.333Z,13.60
2019-01-16T15:42:19.373Z,13.60
2019-01-16T15:45:05.112Z,13.30
2019-01-16T15:47:49.920Z,12.80
2019-01-16T15:50:35.307Z,12.30
2019-01-16T15:53:22.408Z,11.70
2019-01-16T15:56:15.766Z,11.20
2019-01-16T15:59:17.787Z,10.60
2019-01-16T16:02:04.823Z,10.00
2019-01-16T16:05:03.867Z,9.60
2019-01-16T16:07:53.775Z,9.20
2019-01-16T16:10:43.485Z,8.80
2019-01-16T16:13:28.872Z,8.70
2019-01-16T16:16:15.916Z,8.40
2019-01-16T16:19:06.116Z,8.10
2019-01-16T16:21:42.659Z,7.90
2019-01-16T16:24:35.481Z,7.70
2019-01-16T16:27:37.441Z,7.50
2019-01-16T16:30:25.851Z,7.30
2019-01-16T16:33:18.856Z,6.80
2019-01-16T16:36:05.050Z,6.50
2019-01-16T16:39:01.151Z,6.30
2019-01-16T16:41:54.138Z,6.30
2019-01-16T16:44:39.738Z,6.40
2019-01-16T16:47:25.679Z,6.20
2019-01-16T16:50:21.861Z,6.30
2019-01-16T16:53:15.179Z,6.00
2019-01-16T16:56:17.349Z,5.80
2019-01-16T16:59:10.513Z,5.80
2019-01-16T17:02:00.216Z,5.70
2019-01-16T17:04:45.534Z,5.70
2019-01-16T17:07:25.574Z,5.70
2019-01-16T17:10:27.668Z,5.60
2019-01-16T17:13:03.844Z,5.60
2019-01-16T17:15:44.148Z,5.70
2019-01-16T17:18:31.238Z,5.70
2019-01-16T17:21:18.340Z,5.60
2019-01-16T17:24:11.209Z,5.50
2019-01-16T17:26:53.341Z,5.70
2019-01-16T17:29:40.417Z,5.80
2019-01-16T17:32:36.322Z,5.80
2019-01-16T17:35:22.978Z,5.70
2019-01-16T17:38:25.099Z,5.60
2019-01-16T17:41:12.370Z,5.60
2019-01-16T17:44:02.194Z,5.40
2019-01-16T17:47:07.469Z,5.20
2019-01-16T17:49:49.753Z,5.50
2019-01-16T17:52:41.969Z,5.90
2019-01-16T17:55:27.408Z,5.90
2019-01-16T17:58:20.558Z,5.90
2019-01-16T18:01:06.276Z,5.70
2019-01-16T18:03:51.016Z,5.50
2019-01-16T18:06:38.108Z,5.40
2019-01-16T18:09:33.012Z,5.30
2019-01-16T18:12:19.164Z,5.30
2019-01-16T18:15:12.196Z,5.30
2019-01-16T18:18:08.228Z,5.10
2019-01-16T18:21:13.793Z,5.00
2019-01-16T18:23:59.751Z,4.90
2019-01-16T18:26:40.016Z,4.90
2019-01-16T18:29:27.129Z,5.10
2019-01-16T18:32:20.952Z,5.40
2019-01-16T18:35:10.668Z,5.50
2019-01-16T18:37:56.272Z,5.50
2019-01-16T18:40:49.329Z,5.50
2019-01-16T18:43:39.488Z,5.50
2019-01-16T18:46:24.628Z,5.40
2019-01-16T18:49:10.282Z,5.10
2019-01-16T18:51:52.288Z,5.10
2019-01-16T18:54:37.624Z,5.10
2019-01-16T18:57:16.872Z,5.10
2019-01-16T19:00:02.292Z,4.90
2019-01-16T19:02:48.014Z,4.90
2019-01-16T19:05:50.125Z,5.00
2019-01-16T19:08:39.765Z,5.00
2019-01-16T19:11:25.612Z,4.90
2019-01-16T19:14:18.544Z,4.90
2019-01-16T19:17:14.473Z,5.20
2019-01-16T19:19:55.216Z,5.20
2019-01-16T19:22:45.512Z,5.00
2019-01-16T19:25:38.537Z,4.90
2019-01-16T19:28:28.530Z,4.90
2019-01-16T19:31:21.775Z,5.00
2019-01-16T19:34:05.453Z,4.90
2019-01-16T19:36:51.184Z,4.90
2019-01-16T19:39:42.164Z,5.00
2019-01-16T19:42:38.484Z,5.10
2019-01-16T19:45:17.398Z,5.40
2019-01-16T19:48:22.321Z,5.40
2019-01-16T19:51:12.352Z,5.50
2019-01-16T19:54:05.100Z,5.20
2019-01-16T19:56:52.232Z,5.10
2019-01-16T19:59:31.072Z,4.90
2019-01-16T20:02:16.440Z,5.00
2019-01-16T20:05:18.607Z,4.80
2019-01-16T20:08:14.488Z,4.80
2019-01-16T20:11:16.487Z,4.70
2019-01-16T20:14:05.104Z,4.70
2019-01-16T20:16:46.317Z,4.80
2019-01-16T20:19:31.893Z,5.00
2019-01-16T20:22:19.087Z,4.80
2019-01-16T20:25:04.461Z,4.60
2019-01-16T20:27:54.481Z,4.60
2019-01-16T20:30:41.219Z,4.50
2019-01-16T20:33:31.088Z,4.70
2019-01-16T20:36:24.874Z,4.80
2019-01-16T20:39:12.058Z,4.70
2019-01-16T20:42:02.049Z,5.00
2019-01-16T20:44:58.165Z,5.00
2019-01-16T20:47:35.154Z,4.90
2019-01-16T20:50:28.748Z,4.80
2019-01-16T20:53:17.565Z,4.90
2019-01-16T20:56:03.317Z,4.80
2019-01-16T20:58:58.307Z,4.80
2019-01-16T21:01:43.625Z,4.80
2019-01-16T21:04:33.715Z,4.80
2019-01-16T21:07:29.539Z,4.80
2019-01-16T21:10:31.469Z,4.90
2019-01-16T21:13:15.659Z,5.00
2019-01-16T21:15:58.832Z,4.90
2019-01-16T21:18:48.929Z,5.00
2019-01-16T21:21:34.399Z,5.10
2019-01-16T21:24:40.103Z,5.50
2019-01-16T21:27:28.141Z,5.30
2019-01-16T21:30:27.321Z,5.10
2019-01-16T21:33:26.284Z,5.00
2019-01-16T21:36:11.786Z,5.00
2019-01-16T21:38:58.474Z,5.00
2019-01-16T21:41:45.629Z,4.90
2019-01-16T21:44:25.259Z,5.00
2019-01-16T21:47:12.351Z,4.70
2019-01-16T21:50:08.230Z,4.80
2019-01-16T21:52:55.275Z,4.80
2019-01-16T21:55:57.372Z,4.80
2019-01-16T21:58:42.753Z,4.90
2019-01-16T22:01:32.628Z,4.90
2019-01-16T22:04:28.324Z,5.00
2019-01-16T22:07:18.400Z,4.90
2019-01-16T22:10:01.812Z,5.00
2019-01-16T22:12:47.161Z,5.00
2019-01-16T22:15:31.093Z,4.80
2019-01-16T22:18:27.049Z,4.80
2019-01-16T22:21:10.252Z,4.70
2019-01-16T22:24:04.201Z,4.80
2019-01-16T22:27:03.128Z,4.70
2019-01-16T22:29:48.584Z,4.70
2019-01-16T22:32:38.558Z,4.70
2019-01-16T22:35:18.973Z,4.80
2019-01-16T22:38:06.046Z,4.70
2019-01-16T22:41:01.781Z,4.70
2019-01-16T22:43:54.558Z,4.60
2019-01-16T22:46:44.266Z,4.60
2019-01-16T22:49:33.342Z,4.50
2019-01-16T22:52:18.892Z,4.50
2019-01-16T22:55:04.657Z,4.40
2019-01-16T22:58:03.808Z,4.30
2019-01-16T23:01:00.408Z,4.30
2019-01-16T23:03:47.751Z,4.20
2019-01-16T23:06:33.397Z,4.30
2019-01-16T23:09:20.637Z,4.20
2019-01-16T23:12:10.441Z,4.10
2019-01-16T23:15:00.524Z,4.10
2019-01-16T23:17:56.911Z,4.10
2019-01-16T23:20:34.598Z,4.00
2019-01-16T23:23:27.306Z,4.00
2019-01-16T23:26:13.232Z,3.90
2019-01-16T23:29:03.978Z,3.80
2019-01-16T23:31:51.122Z,3.80
2019-01-16T23:34:30.964Z,3.70
2019-01-16T23:37:18.072Z,3.70
2019-01-16T23:40:03.982Z,4.00
2019-01-16T23:42:46.517Z,4.00
2019-01-16T23:45:31.870Z,3.90
2019-01-16T23:48:19.268Z,3.80
2019-01-16T23:51:16.375Z,3.80
2019-01-16T23:54:03.515Z,3.80
2019-01-16T23:56:49.266Z,3.70
2019-01-16T23:59:51.403Z,3.70
